Hillier

*Note: All times are displayed in the local standard time of the station location.
**Rain - Equipment is designed to accurately record liquid precipitation; under conditions when precipitation is not in liquid form, the data displayed may not properly reflect rainfall values.

Date Max Temp
(°C)
Min Temp
(°C)
Avg Temp
(°C)
Rain (mm) Avg RH (%) Solar Rad (kJ/m2)
Sat, Sep 22, 2018 16.8 6.2 12.2 0.0 72.1 7177.9
Fri, Sep 21, 2018 29.6 16.3 22.6 16.0 80.7 6841.3
Thu, Sep 20, 2018 19.1 9.8 14.7 0.0 82.3 4407.2
Wed, Sep 19, 2018 20.2 11.1 15.9 0.0 79.0 7468.2
Tue, Sep 18, 2018 29.0 16.6 22.0 0.0 84.9 9118.2
Mon, Sep 17, 2018 26.1 19.8 22.6 3.0 82.5 9042.0
Sun, Sep 16, 2018 29.4 16.6 22.7 0.2 84.4 10410.0
DateTime Avg Temp (°C) Rain (mm) RH (%) Solar Rad (kJ/m2)
Sun, Sep 23, 2018 06:00 5.3 0.0 100.0 0.0
Sun, Sep 23, 2018 05:00 4.4 0.0 100.0 0.0
Sun, Sep 23, 2018 04:00 4.7 0.0 100.0 0.0
Sun, Sep 23, 2018 03:00 5.0 0.0 100.0 0.0
Sun, Sep 23, 2018 02:00 5.4 0.0 100.0 0.0
Sun, Sep 23, 2018 01:00 5.8 0.0 100.0 0.0
Sun, Sep 23, 2018 00:00 6.4 0.0 100.0 0.0
Sat, Sep 22, 2018 23:00 7.0 0.0 100.0 0.0
Sat, Sep 22, 2018 22:00 7.4 0.0 100.0 0.0
Sat, Sep 22, 2018 21:00 8.0 0.0 99.5 0.0
Sat, Sep 22, 2018 20:00 9.7 0.0 93.5 1.7
Sat, Sep 22, 2018 19:00 12.5 0.0 72.0 85.7
Sat, Sep 22, 2018 18:00 14.1 0.0 61.5 316.4
Sat, Sep 22, 2018 17:00 15.4 0.0 56.3 642.8
Sat, Sep 22, 2018 16:00 15.3 0.0 53.0 810.7
Sat, Sep 22, 2018 15:00 14.7 0.0 55.3 851.5
Sat, Sep 22, 2018 14:00 13.9 0.0 57.0 719.4
Sat, Sep 22, 2018 13:00 14.1 0.0 58.3 924.4
Sat, Sep 22, 2018 12:00 14.4 0.0 60.8 1014.9
Sat, Sep 22, 2018 11:00 13.3 0.0 65.0 698.8
Sat, Sep 22, 2018 10:00 12.9 0.0 64.8 544.8
Sat, Sep 22, 2018 09:00 12.7 0.0 65.8 460.4
Sat, Sep 22, 2018 08:00 9.6 0.0 81.0 106.1
Sat, Sep 22, 2018 07:00 9.9 0.0 76.8 0.3
Sat, Sep 22, 2018 06:00 11.4 0.0 73.3 0.0
Sat, Sep 22, 2018 05:00 12.3 0.0 69.8 0.0
Sat, Sep 22, 2018 04:00 13.5 0.0 66.5 0.0
Sat, Sep 22, 2018 03:00 14.1 0.0 67.0 0.0
Sat, Sep 22, 2018 02:00 14.7 0.0 66.0 0.0
Sat, Sep 22, 2018 01:00 16.0 0.0 66.8 0.0
Sat, Sep 22, 2018 00:00 18.3 0.0 65.3 0.0
Fri, Sep 21, 2018 23:00 20.0 0.0 58.3 0.0
Fri, Sep 21, 2018 22:00 22.2 0.0 70.3 0.0
Fri, Sep 21, 2018 21:00 22.3 0.0 84.0 0.0
Fri, Sep 21, 2018 20:00 23.1 0.0 79.0 3.1
Fri, Sep 21, 2018 19:00 25.6 0.0 71.3 57.0
Fri, Sep 21, 2018 18:00 27.3 0.0 64.0 292.9
Fri, Sep 21, 2018 17:00 28.7 0.0 59.8 535.8
Fri, Sep 21, 2018 16:00 29.5 0.0 58.5 958.7
Fri, Sep 21, 2018 15:00 29.1 0.0 62.0 1180.3
Fri, Sep 21, 2018 14:00 28.4 0.0 67.3 1261.7
Fri, Sep 21, 2018 13:00 27.0 0.0 73.5 1168.1
Fri, Sep 21, 2018 12:00 24.3 0.0 81.3 310.2
Fri, Sep 21, 2018 11:00 23.8 0.0 83.8 443.8
Fri, Sep 21, 2018 10:00 22.9 0.0 86.5 445.7
Fri, Sep 21, 2018 09:00 21.3 1.0 97.0 143.5
Fri, Sep 21, 2018 08:00 20.4 0.0 100.0 40.5
Fri, Sep 21, 2018 07:00 19.5 0.0 100.0 0.0


asterix Register now to access more data! asterix